createdAt,value
2019-02-22T00:03:44.020Z,93.27
2019-02-22T00:07:42.680Z,92.37
2019-02-22T00:11:41.273Z,96.60
2019-02-22T00:15:40.526Z,93.63
2019-02-22T00:19:39.770Z,101.73
2019-02-22T00:23:38.330Z,98.53
2019-02-22T00:27:36.997Z,97.87
2019-02-22T00:31:35.581Z,101.07
2019-02-22T00:35:34.257Z,100.23
2019-02-22T00:39:32.835Z,100.13
2019-02-22T00:43:31.427Z,106.57
2019-02-22T00:47:30.103Z,109.90
2019-02-22T00:51:31.745Z,113.63
2019-02-22T00:55:30.312Z,111.00
2019-02-22T00:59:28.995Z,111.77
2019-02-22T01:03:27.642Z,112.93
2019-02-22T01:07:26.399Z,131.00
2019-02-22T01:11:31.072Z,115.80
2019-02-22T01:15:29.646Z,113.60
2019-02-22T01:19:28.369Z,123.37
2019-02-22T01:23:26.994Z,133.57
2019-02-22T01:27:25.630Z,131.03
2019-02-22T01:31:25.744Z,129.77
2019-02-22T01:35:27.195Z,141.03
2019-02-22T01:39:25.769Z,126.67
2019-02-22T01:43:24.360Z,131.10
2019-02-22T01:47:22.962Z,146.40
2019-02-22T01:51:21.531Z,117.67
2019-02-22T01:55:20.132Z,122.33
2019-02-22T01:59:18.751Z,117.17
2019-02-22T02:03:17.447Z,117.73
2019-02-22T02:07:16.041Z,117.43
2019-02-22T02:11:18.653Z,123.00
2019-02-22T02:15:32.899Z,110.93
2019-02-22T02:19:31.497Z,114.03
2019-02-22T02:23:30.088Z,111.83
2019-02-22T02:27:31.451Z,95.30
2019-02-22T02:31:30.998Z,117.50
2019-02-22T02:35:29.580Z,112.93
2019-02-22T02:39:28.195Z,106.93
2019-02-22T02:43:26.775Z,105.37
2019-02-22T02:47:25.435Z,87.23
2019-02-22T02:51:25.584Z,92.47
2019-02-22T02:55:33.164Z,107.83
2019-02-22T02:59:40.892Z,110.80
2019-02-22T03:03:39.469Z,109.93
2019-02-22T03:07:42.163Z,124.03
2019-02-22T03:11:41.001Z,114.43
2019-02-22T03:15:39.864Z,114.87
2019-02-22T03:19:38.427Z,119.23
2019-02-22T03:23:38.657Z,113.90
2019-02-22T03:27:37.211Z,115.97
2019-02-22T03:31:35.775Z,115.33
2019-02-22T03:35:34.342Z,115.03
2019-02-22T03:39:32.907Z,112.17
2019-02-22T03:43:34.225Z,121.67
2019-02-22T03:47:35.216Z,103.70
2019-02-22T03:51:35.720Z,110.83
2019-02-22T03:55:37.391Z,105.53
2019-02-22T03:59:36.000Z,100.97
2019-02-22T04:03:41.008Z,94.00
2019-02-22T04:07:39.583Z,94.70
2019-02-22T04:11:45.835Z,96.30
2019-02-22T04:15:38.448Z,111.53
2019-02-22T04:19:37.064Z,93.93
2019-02-22T04:27:41.413Z,96.10
2019-02-22T04:31:39.948Z,96.27
2019-02-22T04:35:38.531Z,106.67
2019-02-22T04:39:37.093Z,86.20
2019-02-22T04:43:35.637Z,83.77
2019-02-22T04:47:34.299Z,74.70
2019-02-22T04:51:32.855Z,71.07
2019-02-22T04:55:32.611Z,71.90
2019-02-22T04:59:31.185Z,67.47
2019-02-22T05:03:31.272Z,74.80
2019-02-22T05:07:29.783Z,73.10
2019-02-22T05:11:28.367Z,68.87
2019-02-22T05:15:26.912Z,85.43
2019-02-22T05:19:28.341Z,83.03
2019-02-22T05:23:26.898Z,75.30
2019-02-22T05:27:25.451Z,81.07
2019-02-22T05:31:23.954Z,71.67
2019-02-22T05:35:22.505Z,63.20
2019-02-22T05:39:21.376Z,67.23
2019-02-22T05:43:19.940Z,70.07
2019-02-22T05:47:18.492Z,65.43
2019-02-22T05:51:18.493Z,63.87
2019-02-22T05:55:17.169Z,57.77
2019-02-22T05:59:15.652Z,64.17
2019-02-22T06:03:14.232Z,58.70
2019-02-22T06:07:14.576Z,52.63
2019-02-22T06:11:13.020Z,55.43
2019-02-22T06:15:11.654Z,53.63
2019-02-22T06:19:10.232Z,54.67
2019-02-22T06:23:08.806Z,55.10
2019-02-22T06:27:07.430Z,60.23
2019-02-22T06:31:06.006Z,59.40
2019-02-22T06:35:11.864Z,59.63
2019-02-22T06:39:11.950Z,59.00
2019-02-22T06:43:10.721Z,62.23
2019-02-22T06:47:09.263Z,58.90
2019-02-22T06:51:08.174Z,54.00
2019-02-22T06:55:07.079Z,55.33
2019-02-22T06:59:07.183Z,55.80
2019-02-22T07:03:05.868Z,58.57
2019-02-22T07:07:04.498Z,58.93
2019-02-22T07:11:19.777Z,55.60
2019-02-22T07:15:18.352Z,52.70
2019-02-22T07:19:16.898Z,50.83
2019-02-22T07:23:15.463Z,56.83
2019-02-22T07:27:18.240Z,54.30
2019-02-22T07:31:16.807Z,58.17
2019-02-22T07:35:15.400Z,54.43
2019-02-22T07:39:13.971Z,50.60
2019-02-22T07:43:13.585Z,48.83
2019-02-22T07:47:12.138Z,51.83
2019-02-22T07:51:10.708Z,51.10
2019-02-22T07:55:10.778Z,52.03
2019-02-22T07:59:09.264Z,47.67
2019-02-22T08:03:07.864Z,47.87
2019-02-22T08:07:06.475Z,46.97
2019-02-22T08:11:05.055Z,48.13
2019-02-22T08:15:07.140Z,43.30
2019-02-22T08:19:05.794Z,49.13
2019-02-22T08:23:04.865Z,41.57
2019-02-22T08:27:05.059Z,41.87
2019-02-22T08:31:03.639Z,43.83
2019-02-22T08:35:02.209Z,41.53
2019-02-22T08:39:00.794Z,39.57
2019-02-22T08:42:59.368Z,37.87
2019-02-22T08:46:57.946Z,35.93
2019-02-22T08:50:56.565Z,37.20
2019-02-22T08:54:55.139Z,39.23
2019-02-22T08:58:53.694Z,36.90
2019-02-22T09:02:55.223Z,39.60
2019-02-22T09:06:53.753Z,40.33
2019-02-22T09:11:00.138Z,43.07
2019-02-22T09:14:54.450Z,41.03
2019-02-22T09:18:53.382Z,41.40
2019-02-22T09:22:51.955Z,42.87
2019-02-22T09:26:52.076Z,39.17
2019-02-22T09:30:50.618Z,38.90
2019-02-22T09:34:49.195Z,34.33
2019-02-22T09:38:48.041Z,31.00
2019-02-22T09:42:46.726Z,31.70
2019-02-22T09:46:45.328Z,34.60
2019-02-22T09:50:43.871Z,38.90
2019-02-22T09:54:42.438Z,36.63
2019-02-22T09:58:41.014Z,35.93
2019-02-22T10:02:44.922Z,34.87
2019-02-22T10:06:43.551Z,35.27
2019-02-22T10:10:42.131Z,35.00
2019-02-22T10:14:41.054Z,33.30
2019-02-22T10:18:41.318Z,35.17
2019-02-22T10:22:39.942Z,32.67
2019-02-22T10:26:38.493Z,32.07
2019-02-22T10:30:37.220Z,30.70
2019-02-22T10:34:35.830Z,30.07
2019-02-22T10:38:35.974Z,22.07
2019-02-22T10:42:34.613Z,21.53
2019-02-22T10:46:36.668Z,21.77
2019-02-22T10:50:35.181Z,21.27
2019-02-22T10:54:33.732Z,22.30
2019-02-22T10:58:32.251Z,22.47
2019-02-22T11:02:31.393Z,19.93
2019-02-22T11:06:32.623Z,16.97
2019-02-22T11:10:31.316Z,14.47
2019-02-22T11:14:30.000Z,18.13
2019-02-22T11:18:28.639Z,15.73
2019-02-22T11:22:27.238Z,9.37
2019-02-22T11:26:26.211Z,12.47
2019-02-22T11:30:24.740Z,10.03
2019-02-22T11:34:23.326Z,10.50
2019-02-22T11:38:21.856Z,9.40
2019-02-22T11:42:20.520Z,10.23
2019-02-22T11:46:19.055Z,8.87
2019-02-22T11:50:17.656Z,12.67
2019-02-22T11:54:16.198Z,11.53
2019-02-22T11:58:19.929Z,12.33
2019-02-22T12:02:18.633Z,11.53
2019-02-22T12:06:17.257Z,12.83
2019-02-22T12:10:15.830Z,14.07
2019-02-22T12:14:14.373Z,14.37
2019-02-22T12:18:12.927Z,14.87
2019-02-22T12:22:11.491Z,14.90
2019-02-22T12:26:10.092Z,18.77
2019-02-22T12:30:11.655Z,21.00
2019-02-22T12:34:10.335Z,25.23
2019-02-22T12:38:08.944Z,24.57
2019-02-22T12:42:07.832Z,29.17
2019-02-22T12:46:06.418Z,29.03
2019-02-22T12:50:08.220Z,33.83
2019-02-22T12:54:09.867Z,28.50
2019-02-22T12:58:08.405Z,28.33
2019-02-22T13:02:06.957Z,31.30
2019-02-22T13:06:05.601Z,28.80
2019-02-22T13:10:04.492Z,30.13
2019-02-22T13:14:03.090Z,24.83
2019-02-22T13:18:03.031Z,22.10
2019-02-22T13:22:02.060Z,22.20
2019-02-22T13:26:00.604Z,19.37
2019-02-22T13:29:59.216Z,21.13
2019-02-22T13:33:57.778Z,19.70
2019-02-22T13:37:56.474Z,20.00
2019-02-22T13:41:55.126Z,20.77
2019-02-22T13:45:53.809Z,14.30
2019-02-22T13:49:52.418Z,13.77
2019-02-22T13:53:50.977Z,12.20
2019-02-22T13:57:49.552Z,12.63
2019-02-22T14:01:48.287Z,14.50
2019-02-22T14:05:46.788Z,16.77
2019-02-22T14:09:45.296Z,15.20
2019-02-22T14:13:43.927Z,14.70
2019-02-22T14:17:42.472Z,15.13
2019-02-22T14:21:40.997Z,20.13
2019-02-22T14:25:39.566Z,18.57
2019-02-22T14:29:38.173Z,17.23
2019-02-22T14:33:36.664Z,18.73
2019-02-22T14:37:43.335Z,19.37
2019-02-22T14:41:43.985Z,17.80
2019-02-22T14:45:49.323Z,21.20
2019-02-22T14:49:42.748Z,18.33
2019-02-22T14:53:41.331Z,24.37
2019-02-22T14:57:39.879Z,20.53
2019-02-22T15:01:38.462Z,22.57
2019-02-22T15:05:37.002Z,31.17
2019-02-22T15:09:35.643Z,28.17
2019-02-22T15:13:34.194Z,24.67
2019-02-22T15:17:34.799Z,24.67
2019-02-22T15:21:34.526Z,27.57
2019-02-22T15:25:33.342Z,30.77
2019-02-22T15:29:32.618Z,31.13
2019-02-22T15:33:31.612Z,35.43
2019-02-22T15:37:30.151Z,29.13
2019-02-22T15:41:28.717Z,28.63
2019-02-22T15:45:42.647Z,28.57
2019-02-22T15:49:41.190Z,28.93
2019-02-22T15:53:43.961Z,31.13
2019-02-22T15:57:41.926Z,28.80
2019-02-22T16:01:42.024Z,22.00
2019-02-22T16:05:44.958Z,23.57
2019-02-22T16:09:43.734Z,22.20
2019-02-22T16:13:42.358Z,18.83
2019-02-22T16:17:44.966Z,19.93
2019-02-22T16:21:43.548Z,19.23
2019-02-22T16:25:42.128Z,20.20
2019-02-22T16:29:40.687Z,20.67
2019-02-22T16:33:39.279Z,16.57
2019-02-22T16:37:37.890Z,19.03
2019-02-22T16:41:36.449Z,22.50
2019-02-22T16:45:34.995Z,19.47
2019-02-22T16:49:33.574Z,22.87
2019-02-22T16:53:32.150Z,24.83
2019-02-22T16:57:30.726Z,23.60
2019-02-22T17:01:53.561Z,25.33
2019-02-22T17:05:31.314Z,22.97
2019-02-22T17:09:29.886Z,20.73
2019-02-22T17:13:28.514Z,24.60
2019-02-22T17:17:27.065Z,26.80
2019-02-22T17:21:25.644Z,25.87
2019-02-22T17:25:25.112Z,24.70
2019-02-22T17:29:23.668Z,26.90
2019-02-22T17:33:22.190Z,27.33
2019-02-22T17:37:20.748Z,29.57
2019-02-22T17:41:19.315Z,35.77
2019-02-22T17:45:20.960Z,26.43
2019-02-22T17:49:19.511Z,32.60
2019-02-22T17:57:26.096Z,30.80
2019-02-22T18:01:25.146Z,39.53
2019-02-22T18:05:23.718Z,33.10
2019-02-22T18:09:22.786Z,32.80
2019-02-22T18:13:21.367Z,35.07
2019-02-22T18:17:19.950Z,35.13
2019-02-22T18:21:20.359Z,38.03
2019-02-22T18:25:18.871Z,37.03
2019-02-22T18:29:20.742Z,40.60
2019-02-22T18:33:19.297Z,38.97
2019-02-22T18:37:17.883Z,42.47
2019-02-22T18:41:16.448Z,46.17
2019-02-22T18:45:15.142Z,44.10
2019-02-22T18:49:13.707Z,55.80
2019-02-22T18:53:12.283Z,57.73
2019-02-22T18:57:10.894Z,56.43
2019-02-22T19:01:30.412Z,58.80
2019-02-22T19:05:20.610Z,58.07
2019-02-22T19:09:19.216Z,60.60
2019-02-22T19:13:17.798Z,51.77
2019-02-22T19:17:16.309Z,58.87
2019-02-22T19:21:14.894Z,54.17
2019-02-22T19:25:13.746Z,57.23
2019-02-22T19:29:12.314Z,48.67
2019-02-22T19:33:10.916Z,54.07
2019-02-22T19:37:09.518Z,53.83
2019-02-22T19:41:08.091Z,62.00
2019-02-22T19:45:09.405Z,65.63
2019-02-22T19:49:08.061Z,66.83
2019-02-22T19:53:07.602Z,57.10
2019-02-22T19:57:09.192Z,118.47
2019-02-22T20:01:11.653Z,122.30
2019-02-22T20:05:11.839Z,89.53
2019-02-22T20:09:10.427Z,106.20
2019-02-22T20:13:08.987Z,89.13
2019-02-22T20:17:07.570Z,77.47
2019-02-22T20:21:18.876Z,87.77
2019-02-22T20:25:17.494Z,67.47
2019-02-22T20:29:17.944Z,102.07
2019-02-22T20:33:16.511Z,105.13
2019-02-22T20:37:16.228Z,75.40
2019-02-22T20:41:14.865Z,81.70
2019-02-22T20:45:14.041Z,70.63
2019-02-22T20:49:12.656Z,71.73
2019-02-22T20:53:14.027Z,89.57
2019-02-22T20:57:19.090Z,75.60
2019-02-22T21:01:20.346Z,61.43
2019-02-22T21:05:18.915Z,103.33
2019-02-22T21:09:17.512Z,81.13
2019-02-22T21:13:18.726Z,62.27
2019-02-22T21:17:17.290Z,63.67
2019-02-22T21:21:15.874Z,61.03
2019-02-22T21:25:16.610Z,63.63
2019-02-22T21:29:15.174Z,57.27
2019-02-22T21:33:13.750Z,58.67
2019-02-22T21:37:12.304Z,56.47
2019-02-22T21:41:10.878Z,58.17
2019-02-22T21:45:12.238Z,53.10
2019-02-22T21:49:11.007Z,62.70
2019-02-22T21:53:09.665Z,66.23
2019-02-22T21:57:09.904Z,58.30
2019-02-22T22:01:14.037Z,65.23
2019-02-22T22:05:12.650Z,62.37
2019-02-22T22:09:11.221Z,54.70
2019-02-22T22:13:09.900Z,57.87
2019-02-22T22:17:08.502Z,58.80
2019-02-22T22:21:07.142Z,54.17
2019-02-22T22:25:08.612Z,59.93
2019-02-22T22:29:07.190Z,58.90
2019-02-22T22:33:08.085Z,62.80
2019-02-22T22:37:06.662Z,56.87
2019-02-22T22:41:05.210Z,63.20
2019-02-22T22:45:06.015Z,60.80
2019-02-22T22:49:04.880Z,57.63
2019-02-22T22:53:03.383Z,55.20
2019-02-22T22:57:04.753Z,48.37
2019-02-22T23:01:05.746Z,49.93
2019-02-22T23:05:06.818Z,55.43
2019-02-22T23:09:07.984Z,49.07
2019-02-22T23:13:06.527Z,49.20
2019-02-22T23:17:05.154Z,53.70
2019-02-22T23:21:03.825Z,53.37
2019-02-22T23:25:02.377Z,63.63
2019-02-22T23:29:03.971Z,58.93
2019-02-22T23:33:02.574Z,71.37
2019-02-22T23:37:01.135Z,56.03
2019-02-22T23:41:03.321Z,59.67
2019-02-22T23:45:01.866Z,83.60
2019-02-22T23:49:00.427Z,81.53
2019-02-22T23:52:58.940Z,56.77
2019-02-22T23:56:57.572Z,59.67
